METAR Data
IDs: Format: Raw Decoded Include TAF

Data at: 2110 UTC 01 Dec 2021

KBUR 012053Z 21003KT 10SM CLR 31/M09 A3003 RMK AO2 SLP156 T03061094 58026 $